Time,TemperatureF,DewpointF,PressureIn,WindDirection,WindDirectionDegrees,WindSpeedMPH,WindSpeedGustMPH,Humidity,HourlyPrecipIn,Conditions,Clouds,dailyrainin,SoftwareType,DateUTC
2013-12-27 00:01:00,30.0,27.5,30.36,WSW,246,0.0,0.0,90,0.00,,,0.00,meteobridge,2013-12-27 05:01:00,
2013-12-27 00:02:00,30.0,27.1,30.36,WSW,246,0.0,0.0,89,0.00,,,0.00,meteobridge,2013-12-27 05:02:00,
2013-12-27 00:03:00,30.0,27.1,30.36,WSW,246,0.0,0.0,89,0.00,,,0.00,meteobridge,2013-12-27 05:03:00,
2013-12-27 00:05:00,30.0,27.5,30.36,WSW,246,0.0,0.0,90,0.00,,,0.00,meteobridge,2013-12-27 05:05:00,
2013-12-27 00:10:00,30.0,27.1,30.36,WSW,246,0.0,0.9,89,0.00,,,0.00,meteobridge,2013-12-27 05:10:00,
2013-12-27 00:15:00,30.0,27.5,30.36,WSW,246,0.9,0.9,90,0.00,,,0.00,meteobridge,2013-12-27 05:15:00,
2013-12-27 00:20:00,29.8,27.5,30.36,WSW,246,0.0,0.9,91,0.00,,,0.00,meteobridge,2013-12-27 05:20:00,
2013-12-27 00:25:00,29.8,27.5,30.36,WSW,246,0.0,0.0,91,0.00,,,0.00,meteobridge,2013-12-27 05:25:00,
2013-12-27 00:30:00,29.8,27.3,30.36,WSW,246,0.0,0.0,90,0.00,,,0.00,meteobridge,2013-12-27 05:30:00,
2013-12-27 00:36:00,29.8,27.5,30.36,WSW,246,0.0,0.0,91,0.00,,,0.00,meteobridge,2013-12-27 05:36:00,
2013-12-27 00:41:00,29.7,27.1,30.36,WSW,246,0.0,0.0,90,0.00,,,0.00,meteobridge,2013-12-27 05:41:00,
2013-12-27 00:46:00,29.5,27.0,30.36,WSW,246,0.0,0.0,90,0.00,,,0.00,meteobridge,2013-12-27 05:46:00,
2013-12-27 00:51:00,29.5,27.1,30.36,WSW,246,0.0,0.0,91,0.00,,,0.00,meteobridge,2013-12-27 05:51:00,
2013-12-27 00:56:00,29.3,26.8,30.36,WSW,246,0.0,0.0,90,0.00,,,0.00,meteobridge,2013-12-27 05:56:00,
2013-12-27 01:02:00,29.3,26.4,30.36,WSW,246,0.0,0.0,89,0.00,,,0.00,meteobridge,2013-12-27 06:02:00,
2013-12-27 01:07:00,29.1,26.6,30.35,WSW,246,0.0,0.0,90,0.00,,,0.00,meteobridge,2013-12-27 06:07:00,
2013-12-27 01:13:00,29.1,26.8,30.35,WSW,246,0.0,0.0,91,0.00,,,0.00,meteobridge,2013-12-27 06:13:00,
2013-12-27 01:18:00,28.9,26.6,30.35,WSW,246,0.0,0.0,91,0.00,,,0.00,meteobridge,2013-12-27 06:18:00,
2013-12-27 01:23:00,28.8,26.2,30.36,WSW,246,0.0,0.0,90,0.00,,,0.00,meteobridge,2013-12-27 06:23:00,
2013-12-27 01:28:00,28.8,26.4,30.36,WSW,246,0.0,0.0,91,0.00,,,0.00,meteobridge,2013-12-27 06:28:00,
2013-12-27 01:34:00,28.8,26.4,30.35,WSW,246,0.0,0.0,91,0.00,,,0.00,meteobridge,2013-12-27 06:34:00,
2013-12-27 01:39:00,28.6,25.7,30.35,WSW,246,0.0,0.0,89,0.00,,,0.00,meteobridge,2013-12-27 06:39:00,
2013-12-27 01:44:00,28.8,26.2,30.35,WSW,246,0.0,0.0,90,0.00,,,0.00,meteobridge,2013-12-27 06:44:00,
2013-12-27 01:49:00,28.6,26.2,30.35,WSW,246,0.0,0.0,91,0.00,,,0.00,meteobridge,2013-12-27 06:49:00,
2013-12-27 01:54:00,28.4,26.1,30.36,WSW,246,0.0,0.0,91,0.00,,,0.00,meteobridge,2013-12-27 06:54:00,
2013-12-27 02:00:00,28.2,25.7,30.36,WSW,246,0.0,0.0,90,0.00,,,0.00,meteobridge,2013-12-27 07:00:00,
2013-12-27 02:05:00,28.0,25.5,30.36,WSW,246,0.0,0.0,90,0.00,,,0.00,meteobridge,2013-12-27 07:05:00,
2013-12-27 02:10:00,28.0,25.2,30.36,WSW,246,0.0,0.0,89,0.00,,,0.00,meteobridge,2013-12-27 07:10:00,
2013-12-27 02:15:00,28.0,25.5,30.36,WSW,246,0.0,0.0,90,0.00,,,0.00,meteobridge,2013-12-27 07:15:00,
2013-12-27 02:21:00,27.9,25.3,30.36,WSW,246,0.0,0.0,90,0.00,,,0.00,meteobridge,2013-12-27 07:21:00,
2013-12-27 02:26:00,27.9,25.3,30.37,WSW,246,0.0,0.0,90,0.00,,,0.00,meteobridge,2013-12-27 07:26:00,
2013-12-27 02:31:00,27.7,25.3,30.37,WSW,246,0.0,0.0,91,0.00,,,0.00,meteobridge,2013-12-27 07:31:00,
2013-12-27 02:36:00,27.5,25.2,30.37,WSW,246,0.0,0.0,91,0.00,,,0.00,meteobridge,2013-12-27 07:36:00,
2013-12-27 02:41:00,27.3,25.3,30.37,WSW,246,0.0,0.0,92,0.00,,,0.00,meteobridge,2013-12-27 07:41:00,
2013-12-27 02:46:00,27.3,25.3,30.37,WSW,246,0.0,0.0,92,0.00,,,0.00,meteobridge,2013-12-27 07:46:00,
2013-12-27 02:52:00,27.1,24.6,30.37,WSW,246,0.0,0.0,90,0.00,,,0.00,meteobridge,2013-12-27 07:52:00,
2013-12-27 02:57:00,27.1,24.6,30.37,WSW,246,0.0,0.0,90,0.00,,,0.00,meteobridge,2013-12-27 07:57:00,
2013-12-27 03:02:00,27.1,24.8,30.37,WSW,246,0.0,0.0,91,0.00,,,0.00,meteobridge,2013-12-27 08:02:00,
2013-12-27 03:07:00,27.1,24.8,30.37,WSW,246,0.0,0.9,91,0.00,,,0.00,meteobridge,2013-12-27 08:07:00,
2013-12-27 03:12:00,27.1,24.8,30.37,WSW,246,0.0,0.0,91,0.00,,,0.00,meteobridge,2013-12-27 08:12:00,
2013-12-27 03:18:00,27.1,25.2,30.37,WSW,246,0.0,0.9,92,0.00,,,0.00,meteobridge,2013-12-27 08:18:00,
2013-12-27 03:23:00,27.1,25.2,30.37,WSW,246,0.0,0.9,92,0.00,,,0.00,meteobridge,2013-12-27 08:23:00,
2013-12-27 03:28:00,27.0,25.0,30.37,WSW,246,0.0,0.0,92,0.00,,,0.00,meteobridge,2013-12-27 08:28:00,
2013-12-27 03:33:00,27.0,25.0,30.37,WSW,246,0.0,0.0,92,0.00,,,0.00,meteobridge,2013-12-27 08:33:00,
2013-12-27 03:38:00,26.8,24.8,30.37,WSW,246,0.0,0.0,92,0.00,,,0.00,meteobridge,2013-12-27 08:38:00,
2013-12-27 03:43:00,26.8,24.4,30.37,WSW,246,0.0,0.0,91,0.00,,,0.00,meteobridge,2013-12-27 08:43:00,
2013-12-27 03:49:00,26.6,24.1,30.37,WSW,246,0.0,0.0,90,0.00,,,0.00,meteobridge,2013-12-27 08:49:00,
2013-12-27 03:54:00,26.4,23.9,30.37,WSW,246,0.0,0.0,90,0.00,,,0.00,meteobridge,2013-12-27 08:54:00,
2013-12-27 03:59:00,26.4,24.1,30.37,WSW,246,0.0,0.0,91,0.00,,,0.00,meteobridge,2013-12-27 08:59:00,
2013-12-27 04:05:00,26.4,24.4,30.37,WSW,246,0.0,0.0,92,0.00,,,0.00,meteobridge,2013-12-27 09:05:00,
2013-12-27 04:10:00,26.2,23.9,30.37,WSW,246,0.0,0.0,91,0.00,,,0.00,meteobridge,2013-12-27 09:10:00,
2013-12-27 04:15:00,26.2,24.3,30.37,WSW,246,0.0,0.0,92,0.00,,,0.00,meteobridge,2013-12-27 09:15:00,
2013-12-27 04:20:00,26.2,24.3,30.37,WSW,246,0.0,0.0,92,0.00,,,0.00,meteobridge,2013-12-27 09:20:00,
2013-12-27 04:26:00,26.1,24.1,30.37,WSW,246,0.0,0.0,92,0.00,,,0.00,meteobridge,2013-12-27 09:26:00,
2013-12-27 04:31:00,26.1,24.1,30.38,WSW,246,0.0,0.0,92,0.00,,,0.00,meteobridge,2013-12-27 09:31:00,
2013-12-27 04:36:00,26.1,24.1,30.38,WSW,246,0.0,0.0,92,0.00,,,0.00,meteobridge,2013-12-27 09:36:00,
2013-12-27 04:41:00,26.1,24.3,30.38,WSW,246,0.0,0.0,93,0.00,,,0.00,meteobridge,2013-12-27 09:41:00,
2013-12-27 04:46:00,26.1,24.3,30.38,WSW,246,0.0,0.0,93,0.00,,,0.00,meteobridge,2013-12-27 09:46:00,
2013-12-27 04:52:00,26.1,24.1,30.38,WSW,246,0.0,0.0,92,0.00,,,0.00,meteobridge,2013-12-27 09:52:00,
2013-12-27 04:57:00,25.9,23.9,30.39,WSW,246,0.0,0.0,92,0.00,,,0.00,meteobridge,2013-12-27 09:57:00,
2013-12-27 05:02:00,25.9,23.9,30.39,WSW,246,0.0,0.0,92,0.00,,,0.00,meteobridge,2013-12-27 10:02:00,
2013-12-27 05:07:00,25.9,23.9,30.39,WSW,246,0.0,0.0,92,0.00,,,0.00,meteobridge,2013-12-27 10:07:00,
2013-12-27 05:13:00,25.9,23.9,30.39,WSW,246,0.0,0.0,92,0.00,,,0.00,meteobridge,2013-12-27 10:13:00,
2013-12-27 05:18:00,25.7,23.7,30.39,WSW,246,0.0,0.0,92,0.00,,,0.00,meteobridge,2013-12-27 10:18:00,
2013-12-27 05:23:00,25.7,23.9,30.39,WSW,246,0.0,0.0,93,0.00,,,0.00,meteobridge,2013-12-27 10:23:00,
2013-12-27 05:28:00,25.5,23.7,30.39,WSW,246,0.0,0.0,93,0.00,,,0.00,meteobridge,2013-12-27 10:28:00,
2013-12-27 05:33:00,25.5,23.7,30.39,WSW,246,0.0,0.0,93,0.00,,,0.00,meteobridge,2013-12-27 10:33:00,
2013-12-27 05:39:00,25.5,23.7,30.39,WSW,246,0.0,0.0,93,0.00,,,0.00,meteobridge,2013-12-27 10:39:00,
2013-12-27 05:44:00,25.5,23.7,30.39,WSW,246,0.0,0.0,93,0.00,,,0.00,meteobridge,2013-12-27 10:44:00,
2013-12-27 05:49:00,25.5,23.5,30.40,WSW,246,0.0,0.0,92,0.00,,,0.00,meteobridge,2013-12-27 10:49:00,
2013-12-27 05:54:00,25.3,23.4,30.40,WSW,246,0.0,0.0,92,0.00,,,0.00,meteobridge,2013-12-27 10:54:00,
2013-12-27 05:59:00,25.3,23.4,30.40,WSW,246,0.0,0.0,92,0.00,,,0.00,meteobridge,2013-12-27 10:59:00,
2013-12-27 06:05:00,25.3,23.4,30.40,WSW,246,0.0,0.0,92,0.00,,,0.00,meteobridge,2013-12-27 11:05:00,
2013-12-27 06:09:00,25.3,23.4,30.40,WSW,246,0.0,0.0,92,0.00,,,0.00,meteobridge,2013-12-27 11:09:00,
2013-12-27 06:15:00,25.2,23.2,30.40,WSW,246,0.0,0.0,92,0.00,,,0.00,meteobridge,2013-12-27 11:15:00,
2013-12-27 06:20:00,25.2,23.2,30.40,WSW,246,0.0,0.0,92,0.00,,,0.00,meteobridge,2013-12-27 11:20:00,
2013-12-27 06:25:00,25.2,23.2,30.40,WSW,246,0.9,0.9,92,0.00,,,0.00,meteobridge,2013-12-27 11:25:00,
2013-12-27 06:30:00,25.2,23.2,30.40,WSW,246,0.0,0.0,92,0.00,,,0.00,meteobridge,2013-12-27 11:30:00,
2013-12-27 06:36:00,25.2,23.4,30.40,WSW,246,0.0,0.0,93,0.00,,,0.00,meteobridge,2013-12-27 11:36:00,
2013-12-27 06:41:00,25.2,23.4,30.40,WSW,246,0.0,0.0,93,0.00,,,0.00,meteobridge,2013-12-27 11:41:00,
2013-12-27 06:46:00,25.0,23.2,30.41,WSW,246,0.0,0.0,93,0.00,,,0.00,meteobridge,2013-12-27 11:46:00,
2013-12-27 06:51:00,25.0,23.2,30.41,WSW,246,0.0,0.0,93,0.00,,,0.00,meteobridge,2013-12-27 11:51:00,
2013-12-27 06:56:00,24.8,22.8,30.41,WSW,246,0.0,0.0,92,0.00,,,0.00,meteobridge,2013-12-27 11:56:00,
2013-12-27 07:02:00,24.6,22.8,30.41,WSW,246,0.0,0.0,93,0.00,,,0.00,meteobridge,2013-12-27 12:02:00,
2013-12-27 07:07:00,24.6,22.6,30.42,WSW,246,0.0,0.0,92,0.00,,,0.00,meteobridge,2013-12-27 12:07:00,
2013-12-27 07:12:00,24.6,22.8,30.42,WSW,246,0.0,0.0,93,0.00,,,0.00,meteobridge,2013-12-27 12:12:00,
2013-12-27 07:17:00,24.4,22.6,30.42,WSW,246,0.0,0.0,93,0.00,,,0.00,meteobridge,2013-12-27 12:17:00,
2013-12-27 07:22:00,24.4,23.0,30.42,WSW,246,0.0,0.0,94,0.00,,,0.00,meteobridge,2013-12-27 12:22:00,
2013-12-27 07:28:00,24.4,23.0,30.41,WSW,246,0.0,0.0,94,0.00,,,0.00,meteobridge,2013-12-27 12:28:00,
2013-12-27 07:33:00,24.3,22.5,30.42,WSW,246,0.0,0.0,93,0.00,,,0.00,meteobridge,2013-12-27 12:33:00,
2013-12-27 07:38:00,24.3,22.5,30.41,WSW,246,0.0,0.0,93,0.00,,,0.00,meteobridge,2013-12-27 12:38:00,
2013-12-27 07:43:00,24.3,22.5,30.42,WSW,246,0.0,0.0,93,0.00,,,0.00,meteobridge,2013-12-27 12:43:00,
2013-12-27 07:48:00,24.4,22.6,30.42,WSW,246,0.0,0.0,93,0.00,,,0.00,meteobridge,2013-12-27 12:48:00,
2013-12-27 07:53:00,24.4,22.6,30.42,WSW,246,0.0,0.0,93,0.00,,,0.00,meteobridge,2013-12-27 12:53:00,
2013-12-27 07:59:00,24.4,22.5,30.42,WSW,246,0.0,0.0,92,0.00,,,0.00,meteobridge,2013-12-27 12:59:00,
2013-12-27 08:04:00,24.4,22.6,30.42,WSW,246,0.0,0.0,93,0.00,,,0.00,meteobridge,2013-12-27 13:04:00,
2013-12-27 08:09:00,24.6,22.8,30.42,WSW,246,0.0,0.0,93,0.00,,,0.00,meteobridge,2013-12-27 13:09:00,
2013-12-27 08:14:00,24.6,22.8,30.42,WSW,246,0.0,0.0,93,0.00,,,0.00,meteobridge,2013-12-27 13:14:00,
2013-12-27 08:19:00,25.0,23.0,30.42,WSW,246,0.0,0.0,92,0.00,,,0.00,meteobridge,2013-12-27 13:19:00,
2013-12-27 08:25:00,25.3,23.5,30.42,WSW,246,0.0,0.0,93,0.00,,,0.00,meteobridge,2013-12-27 13:25:00,
2013-12-27 08:30:00,25.5,23.7,30.42,WSW,246,0.0,0.0,93,0.00,,,0.00,meteobridge,2013-12-27 13:30:00,
2013-12-27 08:35:00,26.1,24.3,30.42,WSW,246,0.0,0.0,93,0.00,,,0.00,meteobridge,2013-12-27 13:35:00,
2013-12-27 08:40:00,26.4,24.6,30.43,WSW,246,0.0,0.9,93,0.00,,,0.00,meteobridge,2013-12-27 13:40:00,
2013-12-27 08:46:00,27.0,24.6,30.43,WSW,246,0.0,0.0,91,0.00,,,0.00,meteobridge,2013-12-27 13:46:00,
2013-12-27 08:51:00,27.7,25.3,30.43,WSW,246,0.0,0.0,91,0.00,,,0.00,meteobridge,2013-12-27 13:51:00,
2013-12-27 08:56:00,28.2,25.9,30.44,WSW,246,0.0,0.0,91,0.00,,,0.00,meteobridge,2013-12-27 13:56:00,
2013-12-27 09:01:00,28.8,26.4,30.43,WSW,246,0.0,0.0,91,0.00,,,0.00,meteobridge,2013-12-27 14:01:00,
2013-12-27 09:06:00,29.1,26.6,30.44,WSW,246,0.0,0.0,90,0.00,,,0.00,meteobridge,2013-12-27 14:06:00,
2013-12-27 09:11:00,29.7,26.6,30.44,WSW,246,0.0,0.0,88,0.00,,,0.00,meteobridge,2013-12-27 14:11:00,
2013-12-27 09:16:00,30.4,27.5,30.44,WSW,246,0.0,0.0,89,0.00,,,0.00,meteobridge,2013-12-27 14:16:00,
2013-12-27 09:21:00,30.9,28.0,30.45,WSW,246,0.0,0.0,89,0.00,,,0.00,meteobridge,2013-12-27 14:21:00,
2013-12-27 09:27:00,31.6,28.2,30.44,WSW,246,0.9,0.9,87,0.00,,,0.00,meteobridge,2013-12-27 14:27:00,
2013-12-27 09:32:00,32.7,29.5,30.44,WSW,246,0.0,0.0,88,0.00,,,0.00,meteobridge,2013-12-27 14:32:00,
2013-12-27 09:37:00,33.8,30.6,30.45,WSW,246,0.0,0.0,88,0.00,,,0.00,meteobridge,2013-12-27 14:37:00,
2013-12-27 09:42:00,34.5,31.6,30.45,WSW,246,0.0,0.9,89,0.00,,,0.00,meteobridge,2013-12-27 14:42:00,
2013-12-27 09:47:00,35.8,29.8,30.45,WSW,246,0.0,0.9,79,0.00,,,0.00,meteobridge,2013-12-27 14:47:00,
2013-12-27 09:53:00,36.9,32.7,30.45,WSW,246,0.9,2.0,85,0.00,,,0.00,meteobridge,2013-12-27 14:53:00,
2013-12-27 09:58:00,37.8,31.5,30.45,WSW,246,0.0,2.0,78,0.00,,,0.00,meteobridge,2013-12-27 14:58:00,
2013-12-27 10:03:00,38.7,30.7,30.45,WSW,246,0.0,2.0,73,0.00,,,0.00,meteobridge,2013-12-27 15:03:00,
2013-12-27 10:09:00,39.6,32.0,30.46,WSW,246,0.0,0.9,74,0.00,,,0.00,meteobridge,2013-12-27 15:09:00,
2013-12-27 10:14:00,41.4,27.3,30.45,WSW,246,0.0,0.9,57,0.00,,,0.00,meteobridge,2013-12-27 15:14:00,
2013-12-27 10:19:00,42.1,28.8,30.45,WSW,246,0.0,0.0,59,0.00,,,0.00,meteobridge,2013-12-27 15:19:00,
2013-12-27 10:24:00,43.2,29.3,30.45,WSW,246,0.0,0.9,58,0.00,,,0.00,meteobridge,2013-12-27 15:24:00,
2013-12-27 10:29:00,43.3,28.2,30.45,WSW,246,0.9,2.0,55,0.00,,,0.00,meteobridge,2013-12-27 15:29:00,
2013-12-27 10:34:00,44.4,30.6,30.45,WSW,246,0.9,0.9,58,0.00,,,0.00,meteobridge,2013-12-27 15:34:00,
2013-12-27 10:40:00,44.8,25.7,30.45,NE,36,2.0,2.0,47,0.00,,,0.00,meteobridge,2013-12-27 15:40:00,
2013-12-27 10:45:00,44.4,22.8,30.45,East,99,0.9,2.9,42,0.00,,,0.00,meteobridge,2013-12-27 15:45:00,
2013-12-27 10:50:00,44.8,23.7,30.45,East,85,0.9,2.0,43,0.00,,,0.00,meteobridge,2013-12-27 15:50:00,
2013-12-27 10:55:00,45.3,25.7,30.45,ESE,121,0.0,2.0,46,0.00,,,0.00,meteobridge,2013-12-27 15:55:00,
2013-12-27 11:00:00,45.1,22.8,30.45,East,88,2.0,2.9,41,0.00,,,0.00,meteobridge,2013-12-27 16:00:00,
2013-12-27 11:05:00,45.5,24.3,30.45,SSE,168,0.9,4.0,43,0.00,,,0.00,meteobridge,2013-12-27 16:05:00,
2013-12-27 11:10:00,45.7,23.9,30.45,ESE,105,2.0,2.9,42,0.00,,,0.00,meteobridge,2013-12-27 16:10:00,
2013-12-27 11:15:00,46.9,23.9,30.45,NE,46,0.9,2.0,40,0.00,,,0.00,meteobridge,2013-12-27 16:15:00,
2013-12-27 11:20:00,46.4,23.4,30.44,South,178,0.0,0.9,40,0.00,,,0.00,meteobridge,2013-12-27 16:20:00,
2013-12-27 11:26:00,47.1,24.6,30.43,ESE,102,0.9,2.0,41,0.00,,,0.00,meteobridge,2013-12-27 16:26:00,
2013-12-27 11:31:00,46.9,24.4,30.43,South,171,0.9,4.9,41,0.00,,,0.00,meteobridge,2013-12-27 16:31:00,
2013-12-27 11:36:00,47.5,23.7,30.43,South,190,0.9,2.9,39,0.00,,,0.00,meteobridge,2013-12-27 16:36:00,
2013-12-27 11:41:00,47.3,23.0,30.43,ESE,119,0.9,2.0,38,0.00,,,0.00,meteobridge,2013-12-27 16:41:00,
2013-12-27 11:46:00,47.5,24.4,30.43,North,11,0.9,2.0,40,0.00,,,0.00,meteobridge,2013-12-27 16:46:00,
2013-12-27 11:51:00,48.0,26.6,30.43,East,80,2.0,2.9,43,0.00,,,0.00,meteobridge,2013-12-27 16:51:00,
2013-12-27 11:56:00,47.8,25.3,30.43,East,94,0.0,0.9,41,0.00,,,0.00,meteobridge,2013-12-27 16:56:00,
2013-12-27 12:01:00,47.8,24.1,30.43,East,84,0.0,2.0,39,0.00,,,0.00,meteobridge,2013-12-27 17:01:00,
2013-12-27 12:06:00,47.7,23.4,30.43,ESE,117,2.0,2.9,38,0.00,,,0.00,meteobridge,2013-12-27 17:06:00,
2013-12-27 12:12:00,47.8,26.4,30.42,SSW,200,0.9,2.9,43,0.00,,,0.00,meteobridge,2013-12-27 17:12:00,
2013-12-27 12:17:00,47.8,25.3,30.42,SSW,202,0.0,2.0,41,0.00,,,0.00,meteobridge,2013-12-27 17:17:00,
2013-12-27 12:22:00,47.7,23.9,30.42,ESE,111,2.0,2.9,39,0.00,,,0.00,meteobridge,2013-12-27 17:22:00,
2013-12-27 12:27:00,48.9,25.7,30.41,North,350,0.9,2.0,40,0.00,,,0.00,meteobridge,2013-12-27 17:27:00,
2013-12-27 12:32:00,49.1,25.9,30.41,ENE,58,0.0,2.0,40,0.00,,,0.00,meteobridge,2013-12-27 17:32:00,
2013-12-27 12:37:00,49.5,26.8,30.41,WNW,295,2.0,2.0,41,0.00,,,0.00,meteobridge,2013-12-27 17:37:00,
2013-12-27 12:42:00,48.9,24.4,30.40,SSW,208,2.0,2.9,38,0.00,,,0.00,meteobridge,2013-12-27 17:42:00,
2013-12-27 12:48:00,49.3,26.1,30.40,SSW,208,0.9,2.0,40,0.00,,,0.00,meteobridge,2013-12-27 17:48:00,
2013-12-27 12:53:00,49.3,25.3,30.40,SW,215,0.9,2.0,39,0.00,,,0.00,meteobridge,2013-12-27 17:53:00,
2013-12-27 12:58:00,49.6,24.4,30.40,NW,311,0.9,2.9,37,0.00,,,0.00,meteobridge,2013-12-27 17:58:00,
2013-12-27 13:03:00,49.5,25.0,30.40,South,171,4.0,4.0,38,0.00,,,0.00,meteobridge,2013-12-27 18:03:00,
2013-12-27 13:08:00,49.6,25.7,30.40,South,175,0.0,0.9,39,0.00,,,0.00,meteobridge,2013-12-27 18:08:00,
2013-12-27 13:13:00,49.8,25.2,30.40,West,262,2.0,2.9,38,0.00,,,0.00,meteobridge,2013-12-27 18:13:00,
2013-12-27 13:18:00,50.2,25.0,30.40,WNW,300,2.0,2.0,37,0.00,,,0.00,meteobridge,2013-12-27 18:18:00,
2013-12-27 13:23:00,50.0,25.3,30.40,WSW,253,2.0,2.0,38,0.00,,,0.00,meteobridge,2013-12-27 18:23:00,
2013-12-27 13:28:00,50.0,23.4,30.39,West,263,0.9,2.0,35,0.00,,,0.00,meteobridge,2013-12-27 18:28:00,
2013-12-27 13:33:00,50.5,23.9,30.39,WSW,247,0.0,2.9,35,0.00,,,0.00,meteobridge,2013-12-27 18:33:00,
2013-12-27 13:39:00,50.2,22.8,30.39,WSW,247,0.9,2.0,34,0.00,,,0.00,meteobridge,2013-12-27 18:39:00,
2013-12-27 13:44:00,50.2,24.3,30.38,SSE,161,0.9,4.0,36,0.00,,,0.00,meteobridge,2013-12-27 18:44:00,
2013-12-27 13:49:00,50.4,25.0,30.39,ENE,59,2.0,2.9,37,0.00,,,0.00,meteobridge,2013-12-27 18:49:00,
2013-12-27 13:54:00,50.4,24.4,30.38,South,191,2.9,2.9,36,0.00,,,0.00,meteobridge,2013-12-27 18:54:00,
2013-12-27 13:59:00,50.5,24.6,30.38,NNW,328,0.0,2.0,36,0.00,,,0.00,meteobridge,2013-12-27 18:59:00,
2013-12-27 14:04:00,51.1,24.4,30.38,NW,315,0.0,2.9,35,0.00,,,0.00,meteobridge,2013-12-27 19:04:00,
2013-12-27 14:10:00,50.7,24.1,30.38,SW,229,0.9,2.9,35,0.00,,,0.00,meteobridge,2013-12-27 19:10:00,
2013-12-27 14:15:00,50.9,24.3,30.38,NNW,329,0.9,2.0,35,0.00,,,0.00,meteobridge,2013-12-27 19:15:00,
2013-12-27 14:20:00,51.1,23.7,30.37,NNW,329,0.0,2.0,34,0.00,,,0.00,meteobridge,2013-12-27 19:20:00,
2013-12-27 14:25:00,50.7,25.3,30.37,East,91,2.9,4.0,37,0.00,,,0.00,meteobridge,2013-12-27 19:25:00,
2013-12-27 14:30:00,50.7,24.1,30.37,SE,144,2.0,2.0,35,0.00,,,0.00,meteobridge,2013-12-27 19:30:00,
2013-12-27 14:35:00,51.1,24.4,30.37,West,274,0.9,2.9,35,0.00,,,0.00,meteobridge,2013-12-27 19:35:00,
2013-12-27 14:40:00,51.4,24.1,30.37,WSW,257,0.9,2.9,34,0.00,,,0.00,meteobridge,2013-12-27 19:40:00,
2013-12-27 14:45:00,51.3,23.2,30.37,West,259,0.9,2.0,33,0.00,,,0.00,meteobridge,2013-12-27 19:45:00,
2013-12-27 14:51:00,51.3,22.5,30.37,WNW,287,0.9,2.9,32,0.00,,,0.00,meteobridge,2013-12-27 19:51:00,
2013-12-27 14:56:00,51.3,22.5,30.37,WNW,282,0.9,2.0,32,0.00,,,0.00,meteobridge,2013-12-27 19:56:00,
2013-12-27 15:01:00,51.1,25.7,30.37,WNW,282,0.9,2.0,37,0.00,,,0.00,meteobridge,2013-12-27 20:01:00,
2013-12-27 15:06:00,50.5,25.9,30.37,West,281,0.9,2.0,38,0.00,,,0.00,meteobridge,2013-12-27 20:06:00,
2013-12-27 15:11:00,50.7,26.1,30.37,West,262,0.0,0.9,38,0.00,,,0.00,meteobridge,2013-12-27 20:11:00,
2013-12-27 15:16:00,50.7,27.9,30.37,WNW,292,2.0,2.0,41,0.00,,,0.00,meteobridge,2013-12-27 20:16:00,
2013-12-27 15:21:00,51.3,24.6,30.37,WNW,292,0.9,2.0,35,0.00,,,0.00,meteobridge,2013-12-27 20:21:00,
2013-12-27 15:26:00,50.7,25.3,30.37,West,261,2.0,2.0,37,0.00,,,0.00,meteobridge,2013-12-27 20:26:00,
2013-12-27 15:32:00,50.4,23.7,30.36,West,261,0.0,0.0,35,0.00,,,0.00,meteobridge,2013-12-27 20:32:00,
2013-12-27 15:37:00,50.2,30.7,30.37,West,261,0.0,0.0,47,0.00,,,0.00,meteobridge,2013-12-27 20:37:00,
2013-12-27 15:42:00,50.2,29.1,30.37,West,261,0.0,0.0,44,0.00,,,0.00,meteobridge,2013-12-27 20:42:00,
2013-12-27 15:47:00,50.2,26.2,30.37,West,261,0.0,0.0,39,0.00,,,0.00,meteobridge,2013-12-27 20:47:00,
2013-12-27 15:52:00,50.2,28.6,30.37,West,261,0.0,0.0,43,0.00,,,0.00,meteobridge,2013-12-27 20:52:00,
2013-12-27 15:57:00,50.2,26.2,30.37,West,261,0.0,0.0,39,0.00,,,0.00,meteobridge,2013-12-27 20:57:00,
2013-12-27 16:02:00,49.3,30.4,30.37,West,261,0.0,0.0,48,0.00,,,0.00,meteobridge,2013-12-27 21:02:00,
2013-12-27 16:07:00,49.6,32.2,30.37,West,261,0.9,0.9,51,0.00,,,0.00,meteobridge,2013-12-27 21:07:00,
2013-12-27 16:12:00,48.6,30.7,30.37,West,261,0.0,0.0,50,0.00,,,0.00,meteobridge,2013-12-27 21:12:00,
2013-12-27 16:17:00,48.0,30.7,30.37,West,261,0.0,0.0,51,0.00,,,0.00,meteobridge,2013-12-27 21:17:00,
2013-12-27 16:23:00,47.7,27.3,30.37,West,261,0.0,0.0,45,0.00,,,0.00,meteobridge,2013-12-27 21:23:00,
2013-12-27 16:28:00,46.9,28.2,30.37,West,261,0.0,0.0,48,0.00,,,0.00,meteobridge,2013-12-27 21:28:00,
2013-12-27 16:33:00,46.4,32.0,30.37,West,261,0.0,0.0,57,0.00,,,0.00,meteobridge,2013-12-27 21:33:00,
2013-12-27 16:38:00,45.7,33.1,30.37,West,261,0.0,0.0,61,0.00,,,0.00,meteobridge,2013-12-27 21:38:00,
2013-12-27 16:44:00,45.1,33.3,30.37,West,261,0.0,0.9,63,0.00,,,0.00,meteobridge,2013-12-27 21:44:00,
2013-12-27 16:49:00,45.0,34.3,30.37,West,261,0.0,0.0,66,0.00,,,0.00,meteobridge,2013-12-27 21:49:00,
2013-12-27 16:54:00,44.1,33.8,30.37,West,261,0.0,0.0,67,0.00,,,0.00,meteobridge,2013-12-27 21:54:00,
2013-12-27 16:59:00,43.3,34.2,30.37,West,261,0.0,0.0,70,0.00,,,0.00,meteobridge,2013-12-27 21:59:00,
2013-12-27 17:04:00,42.6,33.8,30.37,West,261,0.0,0.0,71,0.00,,,0.00,meteobridge,2013-12-27 22:04:00,
2013-12-27 17:10:00,42.1,33.8,30.38,West,261,0.0,0.0,72,0.00,,,0.00,meteobridge,2013-12-27 22:10:00,
2013-12-27 17:15:00,41.5,34.5,30.37,West,261,0.0,0.0,76,0.00,,,0.00,meteobridge,2013-12-27 22:15:00,
2013-12-27 17:20:00,41.2,33.4,30.38,West,261,0.0,0.0,74,0.00,,,0.00,meteobridge,2013-12-27 22:20:00,
2013-12-27 17:25:00,40.3,33.3,30.37,West,261,0.0,0.0,76,0.00,,,0.00,meteobridge,2013-12-27 22:25:00,
2013-12-27 17:31:00,39.7,33.1,30.38,West,261,0.0,0.0,77,0.00,,,0.00,meteobridge,2013-12-27 22:31:00,
2013-12-27 17:36:00,39.2,32.5,30.38,West,261,0.0,0.0,77,0.00,,,0.00,meteobridge,2013-12-27 22:36:00,
2013-12-27 17:41:00,38.7,32.0,30.38,West,261,0.0,0.0,77,0.00,,,0.00,meteobridge,2013-12-27 22:41:00,
2013-12-27 17:46:00,38.5,32.9,30.38,West,261,0.0,0.0,80,0.00,,,0.00,meteobridge,2013-12-27 22:46:00,
2013-12-27 17:52:00,37.9,32.0,30.37,West,261,0.0,0.0,79,0.00,,,0.00,meteobridge,2013-12-27 22:52:00,
2013-12-27 17:57:00,37.2,32.0,30.37,West,261,0.0,0.0,81,0.00,,,0.00,meteobridge,2013-12-27 22:57:00,
2013-12-27 18:02:00,37.0,32.0,30.37,West,261,0.0,0.0,82,0.00,,,0.00,meteobridge,2013-12-27 23:02:00,
2013-12-27 18:07:00,36.9,32.2,30.37,West,261,0.0,0.0,83,0.00,,,0.00,meteobridge,2013-12-27 23:07:00,
2013-12-27 18:12:00,36.1,32.0,30.37,West,261,0.0,0.0,85,0.00,,,0.00,meteobridge,2013-12-27 23:12:00,
2013-12-27 18:17:00,36.0,32.2,30.38,West,261,0.0,0.0,86,0.00,,,0.00,meteobridge,2013-12-27 23:17:00,
2013-12-27 18:22:00,35.6,31.5,30.38,West,261,0.0,0.0,85,0.00,,,0.00,meteobridge,2013-12-27 23:22:00,
2013-12-27 18:28:00,35.4,30.7,30.39,West,261,0.0,0.0,83,0.00,,,0.00,meteobridge,2013-12-27 23:28:00,
2013-12-27 18:33:00,35.6,30.4,30.39,West,261,0.0,0.0,81,0.00,,,0.00,meteobridge,2013-12-27 23:33:00,
2013-12-27 18:38:00,35.4,30.6,30.39,West,261,0.0,0.0,82,0.00,,,0.00,meteobridge,2013-12-27 23:38:00,
2013-12-27 18:43:00,35.2,30.6,30.39,West,261,0.0,0.0,83,0.00,,,0.00,meteobridge,2013-12-27 23:43:00,
2013-12-27 18:48:00,34.9,30.6,30.39,West,261,0.0,0.0,84,0.00,,,0.00,meteobridge,2013-12-27 23:48:00,
2013-12-27 18:54:00,34.7,30.4,30.40,West,261,0.0,0.0,84,0.00,,,0.00,meteobridge,2013-12-27 23:54:00,
2013-12-27 18:59:00,34.5,29.7,30.40,West,261,0.0,0.0,82,0.00,,,0.00,meteobridge,2013-12-27 23:59:00,
2013-12-27 19:04:00,34.3,29.5,30.40,West,261,0.0,0.0,82,0.00,,,0.00,meteobridge,2013-12-28 00:04:00,
2013-12-27 19:09:00,34.2,29.5,30.40,West,261,0.0,0.0,83,0.00,,,0.00,meteobridge,2013-12-28 00:09:00,
2013-12-27 19:15:00,34.0,29.1,30.40,West,261,0.0,0.0,82,0.00,,,0.00,meteobridge,2013-12-28 00:15:00,
2013-12-27 19:20:00,33.6,28.9,30.40,West,261,0.0,0.0,83,0.00,,,0.00,meteobridge,2013-12-28 00:20:00,
2013-12-27 19:25:00,33.4,29.5,30.40,West,261,0.0,0.0,85,0.00,,,0.00,meteobridge,2013-12-28 00:25:00,
2013-12-27 19:30:00,33.3,28.6,30.40,West,261,0.0,0.0,83,0.00,,,0.00,meteobridge,2013-12-28 00:30:00,
2013-12-27 19:35:00,32.9,28.9,30.40,West,261,0.0,0.0,85,0.00,,,0.00,meteobridge,2013-12-28 00:35:00,
2013-12-27 19:40:00,32.7,28.4,30.40,West,261,0.9,0.9,84,0.00,,,0.00,meteobridge,2013-12-28 00:40:00,
2013-12-27 19:46:00,32.5,28.6,30.40,West,261,0.0,0.0,85,0.00,,,0.00,meteobridge,2013-12-28 00:46:00,
2013-12-27 19:50:00,32.4,28.9,30.40,West,261,0.0,0.0,87,0.00,,,0.00,meteobridge,2013-12-28 00:50:00,
2013-12-27 19:56:00,32.2,28.4,30.40,West,261,0.0,0.0,86,0.00,,,0.00,meteobridge,2013-12-28 00:56:00,
2013-12-27 20:01:00,32.0,28.0,30.40,West,261,0.9,0.9,85,0.00,,,0.00,meteobridge,2013-12-28 01:01:00,
2013-12-27 20:06:00,31.6,28.2,30.41,West,261,0.9,0.9,87,0.00,,,0.00,meteobridge,2013-12-28 01:06:00,
2013-12-27 20:11:00,31.5,28.0,30.41,West,261,0.0,0.0,87,0.00,,,0.00,meteobridge,2013-12-28 01:11:00,
2013-12-27 20:16:00,31.5,28.4,30.41,West,261,0.0,0.9,88,0.00,,,0.00,meteobridge,2013-12-28 01:16:00,
2013-12-27 20:21:00,31.3,27.9,30.41,West,261,0.0,0.9,87,0.00,,,0.00,meteobridge,2013-12-28 01:21:00,
2013-12-27 20:26:00,30.9,27.5,30.42,West,261,0.9,0.9,87,0.00,,,0.00,meteobridge,2013-12-28 01:26:00,
2013-12-27 20:32:00,30.7,27.7,30.42,West,261,0.0,0.9,88,0.00,,,0.00,meteobridge,2013-12-28 01:32:00,
2013-12-27 20:37:00,30.6,27.5,30.42,West,261,0.0,0.9,88,0.00,,,0.00,meteobridge,2013-12-28 01:37:00,
2013-12-27 20:42:00,30.4,27.3,30.42,West,261,0.9,0.9,88,0.00,,,0.00,meteobridge,2013-12-28 01:42:00,
2013-12-27 20:47:00,30.4,27.5,30.42,West,261,0.0,0.0,89,0.00,,,0.00,meteobridge,2013-12-28 01:47:00,
2013-12-27 20:52:00,30.0,27.0,30.42,West,261,0.0,0.0,88,0.00,,,0.00,meteobridge,2013-12-28 01:52:00,
2013-12-27 20:58:00,30.0,27.1,30.42,West,261,0.0,0.0,89,0.00,,,0.00,meteobridge,2013-12-28 01:58:00,
2013-12-27 21:03:00,29.8,27.0,30.42,West,261,0.0,0.0,89,0.00,,,0.00,meteobridge,2013-12-28 02:03:00,
2013-12-27 21:08:00,29.8,27.0,30.42,West,261,0.0,0.0,89,0.00,,,0.00,meteobridge,2013-12-28 02:08:00,
2013-12-27 21:13:00,29.8,27.0,30.42,West,261,0.0,0.0,89,0.00,,,0.00,meteobridge,2013-12-28 02:13:00,
2013-12-27 21:18:00,29.8,27.0,30.42,West,261,0.9,0.9,89,0.00,,,0.00,meteobridge,2013-12-28 02:18:00,
2013-12-27 21:23:00,29.7,27.1,30.42,West,261,0.0,0.0,90,0.00,,,0.00,meteobridge,2013-12-28 02:23:00,
2013-12-27 21:28:00,29.7,27.1,30.42,West,261,0.9,0.9,90,0.00,,,0.00,meteobridge,2013-12-28 02:28:00,
2013-12-27 21:33:00,29.7,27.1,30.42,West,261,0.0,0.9,90,0.00,,,0.00,meteobridge,2013-12-28 02:33:00,
2013-12-27 21:38:00,29.7,27.1,30.42,West,261,0.0,0.9,90,0.00,,,0.00,meteobridge,2013-12-28 02:38:00,
2013-12-27 21:44:00,29.5,27.0,30.42,West,261,0.0,0.0,90,0.00,,,0.00,meteobridge,2013-12-28 02:44:00,
2013-12-27 21:49:00,29.3,26.8,30.42,West,261,0.0,0.0,90,0.00,,,0.00,meteobridge,2013-12-28 02:49:00,
2013-12-27 21:55:00,29.1,26.6,30.41,West,261,0.0,0.0,90,0.00,,,0.00,meteobridge,2013-12-28 02:55:00,
2013-12-27 22:00:00,29.1,26.6,30.41,West,261,0.0,0.0,90,0.00,,,0.00,meteobridge,2013-12-28 03:00:00,
2013-12-27 22:05:00,28.9,26.6,30.41,West,261,0.0,0.0,91,0.00,,,0.00,meteobridge,2013-12-28 03:05:00,
2013-12-27 22:10:00,28.8,26.2,30.41,West,261,0.0,0.0,90,0.00,,,0.00,meteobridge,2013-12-28 03:10:00,
2013-12-27 22:16:00,28.8,26.2,30.41,West,261,0.0,0.0,90,0.00,,,0.00,meteobridge,2013-12-28 03:16:00,
2013-12-27 22:21:00,28.8,26.4,30.42,West,261,0.0,0.0,91,0.00,,,0.00,meteobridge,2013-12-28 03:21:00,
2013-12-27 22:26:00,28.6,26.2,30.42,West,261,0.0,0.0,91,0.00,,,0.00,meteobridge,2013-12-28 03:26:00,
2013-12-27 22:31:00,28.4,26.1,30.42,West,261,0.0,0.0,91,0.00,,,0.00,meteobridge,2013-12-28 03:31:00,
2013-12-27 22:36:00,28.2,25.9,30.42,West,261,0.0,0.0,91,0.00,,,0.00,meteobridge,2013-12-28 03:36:00,
2013-12-27 22:41:00,28.2,25.9,30.42,West,261,0.0,0.0,91,0.00,,,0.00,meteobridge,2013-12-28 03:41:00,
2013-12-27 22:47:00,28.0,25.7,30.42,West,261,0.0,0.0,91,0.00,,,0.00,meteobridge,2013-12-28 03:47:00,
2013-12-27 22:52:00,28.0,25.7,30.42,West,261,0.0,0.0,91,0.00,,,0.00,meteobridge,2013-12-28 03:52:00,
2013-12-27 22:57:00,28.0,25.7,30.42,West,261,0.0,0.0,91,0.00,,,0.00,meteobridge,2013-12-28 03:57:00,
2013-12-27 23:02:00,27.9,25.9,30.41,West,261,0.0,0.0,92,0.00,,,0.00,meteobridge,2013-12-28 04:02:00,
2013-12-27 23:08:00,27.9,25.9,30.41,West,261,0.0,0.0,92,0.00,,,0.00,meteobridge,2013-12-28 04:08:00,
2013-12-27 23:13:00,27.7,25.7,30.41,West,261,0.0,0.0,92,0.00,,,0.00,meteobridge,2013-12-28 04:13:00,
2013-12-27 23:18:00,27.7,25.7,30.41,West,261,0.0,0.0,92,0.00,,,0.00,meteobridge,2013-12-28 04:18:00,
2013-12-27 23:23:00,27.7,25.7,30.40,West,261,0.9,0.9,92,0.00,,,0.00,meteobridge,2013-12-28 04:23:00,
2013-12-27 23:28:00,27.7,25.7,30.40,West,261,0.0,0.0,92,0.00,,,0.00,meteobridge,2013-12-28 04:28:00,
2013-12-27 23:34:00,27.7,25.7,30.40,West,261,0.0,0.0,92,0.00,,,0.00,meteobridge,2013-12-28 04:34:00,
2013-12-27 23:39:00,27.7,25.7,30.40,West,261,0.0,0.0,92,0.00,,,0.00,meteobridge,2013-12-28 04:39:00,
2013-12-27 23:44:00,27.5,25.5,30.40,West,261,0.0,0.0,92,0.00,,,0.00,meteobridge,2013-12-28 04:44:00,
2013-12-27 23:49:00,27.3,25.3,30.40,West,261,0.0,0.0,92,0.00,,,0.00,meteobridge,2013-12-28 04:49:00,
2013-12-27 23:55:00,27.3,25.5,30.40,West,261,0.0,0.0,93,0.00,,,0.00,meteobridge,2013-12-28 04:55:00,